createdAt,value
2017-08-19T00:01:04.821Z,84.60
2017-08-19T00:03:31.769Z,84.60
2017-08-19T00:05:58.696Z,84.10
2017-08-19T00:08:24.902Z,84.00
2017-08-19T00:10:51.055Z,83.70
2017-08-19T00:13:17.296Z,84.40
2017-08-19T00:15:43.449Z,83.80
2017-08-19T00:18:09.635Z,84.10
2017-08-19T00:20:35.919Z,84.20
2017-08-19T00:23:03.298Z,84.00
2017-08-19T00:25:29.475Z,83.20
2017-08-19T00:27:56.463Z,82.00
2017-08-19T00:30:24.547Z,81.30
2017-08-19T00:32:52.696Z,81.90
2017-08-19T00:35:18.874Z,82.70
2017-08-19T00:37:45.431Z,83.20
2017-08-19T00:40:12.447Z,84.00
2017-08-19T00:42:39.064Z,83.50
2017-08-19T00:45:05.514Z,84.10
2017-08-19T00:47:31.738Z,84.00
2017-08-19T00:49:57.963Z,84.20
2017-08-19T00:52:24.142Z,84.20
2017-08-19T00:54:51.082Z,84.70
2017-08-19T00:57:18.045Z,83.80
2017-08-19T00:59:44.316Z,83.10
2017-08-19T01:02:10.484Z,83.00
2017-08-19T01:04:37.474Z,83.40
2017-08-19T01:07:03.944Z,82.70
2017-08-19T01:09:31.086Z,82.50
2017-08-19T01:11:58.134Z,81.60
2017-08-19T01:30:44.765Z,81.00
2017-08-19T01:33:10.926Z,80.60
2017-08-19T01:35:37.145Z,80.20
2017-08-19T01:38:03.318Z,80.60
2017-08-19T01:40:29.495Z,80.10
2017-08-19T01:42:56.410Z,80.20
2017-08-19T01:45:22.587Z,79.10
2017-08-19T01:47:49.629Z,77.50
2017-08-19T01:50:18.221Z,78.50
2017-08-19T01:52:45.147Z,79.00
2017-08-19T01:57:39.202Z,78.80
2017-08-19T02:00:05.435Z,79.30
2017-08-19T02:02:32.345Z,79.50
2017-08-19T02:04:59.692Z,79.60
2017-08-19T02:07:25.894Z,80.10
2017-08-19T02:09:52.769Z,81.10
2017-08-19T02:12:18.938Z,80.10
2017-08-19T02:14:45.126Z,78.50
2017-08-19T02:17:11.302Z,80.40
2017-08-19T02:19:37.459Z,80.60
2017-08-19T02:22:05.356Z,81.50
2017-08-19T02:24:31.584Z,80.90
2017-08-19T02:26:57.784Z,79.10
2017-08-19T02:29:24.706Z,80.90
2017-08-19T02:31:50.942Z,79.50
2017-08-19T02:34:17.479Z,78.90
2017-08-19T02:36:43.628Z,78.10
2017-08-19T02:41:37.746Z,79.60
2017-08-19T02:44:03.928Z,79.60
2017-08-19T02:46:30.081Z,79.60
2017-08-19T02:48:57.146Z,79.90
2017-08-19T02:51:23.333Z,79.10
2017-08-19T02:53:49.546Z,79.60
2017-08-19T02:56:16.474Z,80.00
2017-08-19T02:58:42.669Z,79.40
2017-08-19T03:01:08.854Z,78.90
2017-08-19T03:03:35.026Z,78.90
2017-08-19T03:06:01.270Z,79.50
2017-08-19T03:08:27.437Z,78.40
2017-08-19T03:10:54.301Z,78.80
2017-08-19T03:13:20.446Z,78.80
2017-08-19T03:15:47.351Z,79.50
2017-08-19T03:18:13.554Z,78.80
2017-08-19T03:20:39.753Z,79.30
2017-08-19T03:23:05.955Z,78.80
2017-08-19T03:25:32.190Z,79.00
2017-08-19T03:27:59.126Z,79.90
2017-08-19T03:30:25.702Z,78.90
2017-08-19T03:32:51.926Z,79.40
2017-08-19T03:35:19.427Z,78.50
2017-08-19T03:37:46.388Z,80.50
2017-08-19T03:40:12.526Z,78.10
2017-08-19T03:42:38.783Z,78.60
2017-08-19T03:45:04.984Z,76.80
2017-08-19T03:47:31.164Z,76.90
2017-08-19T03:49:57.365Z,76.60
2017-08-19T03:52:24.283Z,77.20
2017-08-19T03:54:51.480Z,78.30
2017-08-19T03:57:17.797Z,77.80
2017-08-19T03:59:44.160Z,78.80
2017-08-19T04:02:10.369Z,78.80
2017-08-19T04:04:37.126Z,78.50
2017-08-19T04:07:03.343Z,78.70
2017-08-19T04:09:29.496Z,78.60
2017-08-19T04:11:55.639Z,79.00
2017-08-19T04:14:21.830Z,79.40
2017-08-19T04:16:47.986Z,79.80
2017-08-19T04:19:14.178Z,79.50
2017-08-19T04:21:40.342Z,80.60
2017-08-19T04:24:06.582Z,79.80
2017-08-19T04:26:32.896Z,78.20
2017-08-19T04:28:59.112Z,78.20
2017-08-19T04:31:25.541Z,78.80
2017-08-19T04:33:51.740Z,79.80
2017-08-19T04:36:17.956Z,79.30
2017-08-19T04:38:46.662Z,78.00
2017-08-19T04:41:13.600Z,77.80
2017-08-19T04:43:40.530Z,77.50
2017-08-19T04:46:07.438Z,78.50
2017-08-19T04:48:33.627Z,78.40
2017-08-19T04:50:59.858Z,78.30
2017-08-19T04:53:26.041Z,78.30
2017-08-19T04:55:52.329Z,78.90
2017-08-19T04:58:18.563Z,78.30
2017-08-19T05:00:44.770Z,77.20
2017-08-19T05:03:10.936Z,77.10
2017-08-19T05:05:37.926Z,77.70
2017-08-19T05:08:04.827Z,78.40
2017-08-19T05:10:31.509Z,78.30
2017-08-19T05:12:57.729Z,77.40
2017-08-19T05:15:23.886Z,77.10
2017-08-19T05:17:50.799Z,78.20
2017-08-19T05:20:17.353Z,78.80
2017-08-19T05:22:44.638Z,78.70
2017-08-19T05:25:10.938Z,78.50
2017-08-19T05:27:37.972Z,77.30
2017-08-19T05:30:04.140Z,77.10
2017-08-19T05:32:30.361Z,77.60
2017-08-19T05:34:56.538Z,77.70
2017-08-19T05:37:22.754Z,77.80
2017-08-19T05:39:48.896Z,77.20
2017-08-19T05:42:15.102Z,77.30
2017-08-19T05:44:41.263Z,74.00
2017-08-19T05:47:07.439Z,73.30
2017-08-19T05:49:33.663Z,75.70
2017-08-19T05:51:59.868Z,73.40
2017-08-19T05:54:26.052Z,73.50
2017-08-19T05:56:52.250Z,71.80
2017-08-19T05:59:18.449Z,69.20
2017-08-19T06:01:45.923Z,68.10
2017-08-19T06:04:12.083Z,68.10
2017-08-19T06:06:39.942Z,67.40
2017-08-19T06:09:06.115Z,66.30
2017-08-19T06:11:32.369Z,66.50
2017-08-19T06:13:58.573Z,66.80
2017-08-19T06:16:24.774Z,65.40
2017-08-19T06:18:50.973Z,63.70
2017-08-19T06:21:17.193Z,63.80
2017-08-19T06:23:43.353Z,62.60
2017-08-19T06:26:09.560Z,60.50
2017-08-19T06:28:35.761Z,60.80
2017-08-19T06:31:02.686Z,62.40
2017-08-19T06:33:28.884Z,62.30
2017-08-19T06:35:55.067Z,61.10
2017-08-19T06:38:22.024Z,61.90
2017-08-19T06:40:48.246Z,59.20
2017-08-19T06:43:15.204Z,59.80
2017-08-19T06:45:41.498Z,58.60
2017-08-19T06:48:07.703Z,58.70
2017-08-19T06:50:33.869Z,58.70
2017-08-19T06:53:02.043Z,56.50
2017-08-19T06:55:28.261Z,56.60
2017-08-19T06:57:54.411Z,54.40
2017-08-19T07:00:21.380Z,56.40
2017-08-19T07:02:47.551Z,55.00
2017-08-19T07:05:13.781Z,54.60
2017-08-19T07:07:41.888Z,54.60
2017-08-19T07:12:35.979Z,52.70
2017-08-19T07:15:02.934Z,52.10
2017-08-19T07:17:29.145Z,52.10
2017-08-19T07:19:56.056Z,52.00
2017-08-19T07:22:22.283Z,50.90
2017-08-19T07:24:48.477Z,50.70
2017-08-19T07:27:14.674Z,51.30
2017-08-19T07:29:42.214Z,51.10
2017-08-19T07:32:08.403Z,50.30
2017-08-19T07:34:34.620Z,49.20
2017-08-19T07:37:00.798Z,49.80
2017-08-19T07:39:26.976Z,50.10
2017-08-19T07:41:53.200Z,47.30
2017-08-19T07:44:19.537Z,49.40
2017-08-19T07:46:45.748Z,46.90
2017-08-19T07:49:12.671Z,47.80
2017-08-19T07:51:38.942Z,48.80
2017-08-19T07:54:05.148Z,49.00
2017-08-19T07:56:31.895Z,48.70
2017-08-19T07:58:58.808Z,46.30
2017-08-19T08:01:24.986Z,45.10
2017-08-19T08:03:51.254Z,46.20
2017-08-19T08:06:17.445Z,46.90
2017-08-19T08:08:43.653Z,45.70
2017-08-19T08:11:09.855Z,46.00
2017-08-19T08:13:37.013Z,45.50
2017-08-19T08:16:03.225Z,45.40
2017-08-19T08:18:29.435Z,46.60
2017-08-19T08:20:55.919Z,43.10
2017-08-19T08:23:22.813Z,45.00
2017-08-19T08:25:49.013Z,45.00
2017-08-19T08:28:15.198Z,44.10
2017-08-19T08:30:42.907Z,46.10
2017-08-19T08:33:09.467Z,46.10
2017-08-19T08:35:35.659Z,46.30
2017-08-19T08:38:01.842Z,46.90
2017-08-19T08:40:28.071Z,47.60
2017-08-19T08:42:55.750Z,49.30
2017-08-19T08:45:21.926Z,49.50
2017-08-19T08:47:48.210Z,48.80
2017-08-19T08:50:15.565Z,45.30
2017-08-19T08:52:42.133Z,47.40
2017-08-19T08:55:08.326Z,46.50
2017-08-19T08:57:34.537Z,45.30
2017-08-19T09:00:00.747Z,45.20
2017-08-19T09:02:26.922Z,45.60
2017-08-19T09:04:53.087Z,47.00
2017-08-19T09:07:19.231Z,44.90
2017-08-19T09:09:45.428Z,44.90
2017-08-19T09:12:11.679Z,48.30
2017-08-19T09:14:37.882Z,47.00
2017-08-19T09:17:04.827Z,48.80
2017-08-19T09:19:30.981Z,48.40
2017-08-19T09:21:57.173Z,47.20
2017-08-19T09:24:23.330Z,49.60
2017-08-19T09:26:49.541Z,50.00
2017-08-19T09:29:15.758Z,48.50
2017-08-19T09:31:42.666Z,50.40
2017-08-19T09:34:08.862Z,49.50
2017-08-19T09:36:35.115Z,47.90
2017-08-19T09:39:01.301Z,48.20
2017-08-19T09:41:28.228Z,47.90
2017-08-19T09:43:55.141Z,42.30
2017-08-19T09:46:21.305Z,42.30
2017-08-19T09:48:48.234Z,40.40
2017-08-19T09:51:14.406Z,39.70
2017-08-19T09:53:40.623Z,42.50
2017-08-19T09:56:06.860Z,42.90
2017-08-19T09:58:33.957Z,41.80
2017-08-19T10:01:02.282Z,41.30
2017-08-19T10:03:29.653Z,41.20
2017-08-19T10:05:55.883Z,40.60
2017-08-19T10:11:21.438Z,41.60
2017-08-19T10:13:47.624Z,40.80
2017-08-19T10:16:14.566Z,40.80
2017-08-19T10:18:41.520Z,41.50
2017-08-19T10:21:08.613Z,40.50
2017-08-19T10:23:34.775Z,39.90
2017-08-19T10:26:01.718Z,40.30
2017-08-19T10:28:28.732Z,39.60
2017-08-19T10:30:54.906Z,40.30
2017-08-19T10:33:21.869Z,39.70
2017-08-19T10:35:48.080Z,38.30
2017-08-19T10:38:15.056Z,39.90
2017-08-19T10:40:41.246Z,39.80
2017-08-19T10:43:08.254Z,39.60
2017-08-19T10:45:34.814Z,38.10
2017-08-19T10:48:00.996Z,39.60
2017-08-19T10:50:27.168Z,39.30
2017-08-19T10:52:53.333Z,40.00
2017-08-19T10:55:19.504Z,39.80
2017-08-19T10:57:46.431Z,40.40
2017-08-19T11:00:12.628Z,41.90
2017-08-19T11:02:39.558Z,41.40
2017-08-19T11:05:05.774Z,41.10
2017-08-19T11:07:31.963Z,41.80
2017-08-19T11:09:58.179Z,41.70
2017-08-19T11:12:24.345Z,41.50
2017-08-19T11:14:51.417Z,41.80
2017-08-19T11:17:17.605Z,40.70
2017-08-19T11:19:43.814Z,39.00
2017-08-19T11:22:10.015Z,37.60
2017-08-19T11:24:36.937Z,38.30
2017-08-19T11:27:03.184Z,38.10
2017-08-19T11:29:31.063Z,36.90
2017-08-19T11:31:58.008Z,36.50
2017-08-19T11:34:25.953Z,37.40
2017-08-19T11:36:52.897Z,37.40
2017-08-19T11:39:19.134Z,37.70
2017-08-19T11:41:45.307Z,36.30
2017-08-19T11:44:11.495Z,36.90
2017-08-19T11:46:37.681Z,35.90
2017-08-19T11:49:03.962Z,36.60
2017-08-19T11:51:30.855Z,36.30
2017-08-19T11:53:57.073Z,37.90
2017-08-19T11:56:23.255Z,36.40
2017-08-19T11:58:50.555Z,36.70
2017-08-19T12:01:16.762Z,34.10
2017-08-19T12:03:42.939Z,34.60
2017-08-19T12:06:09.145Z,35.60
2017-08-19T12:08:35.342Z,37.00
2017-08-19T12:11:04.571Z,36.40
2017-08-19T12:13:30.756Z,35.80
2017-08-19T12:15:56.993Z,33.90
2017-08-19T12:18:23.918Z,38.30
2017-08-19T12:20:50.457Z,35.40
2017-08-19T12:23:16.665Z,35.20
2017-08-19T12:25:43.371Z,35.60
2017-08-19T12:28:09.567Z,34.50
2017-08-19T12:30:36.459Z,36.40
2017-08-19T12:33:02.670Z,35.40
2017-08-19T12:35:28.839Z,34.70
2017-08-19T12:37:55.068Z,34.70
2017-08-19T12:40:21.221Z,34.20
2017-08-19T12:42:48.122Z,34.90
2017-08-19T12:45:14.272Z,34.30
2017-08-19T12:47:40.505Z,34.40
2017-08-19T12:50:06.698Z,33.90
2017-08-19T12:52:33.695Z,34.70
2017-08-19T12:55:00.714Z,35.30
2017-08-19T12:57:26.949Z,36.10
2017-08-19T12:59:53.149Z,34.40
2017-08-19T13:02:20.460Z,34.00
2017-08-19T13:04:48.015Z,34.90
2017-08-19T13:07:14.955Z,35.10
2017-08-19T13:09:41.184Z,33.70
2017-08-19T13:12:08.189Z,34.50
2017-08-19T13:14:34.804Z,36.40
2017-08-19T13:17:01.381Z,35.80
2017-08-19T13:19:27.628Z,38.00
2017-08-19T13:21:54.626Z,37.70
2017-08-19T13:24:21.530Z,37.60
2017-08-19T13:26:48.053Z,37.20
2017-08-19T13:29:14.232Z,37.40
2017-08-19T13:31:40.401Z,38.40
2017-08-19T13:34:07.055Z,35.30
2017-08-19T13:36:34.032Z,36.20
2017-08-19T13:39:00.242Z,35.40
2017-08-19T13:41:27.619Z,37.60
2017-08-19T13:43:53.848Z,38.20
2017-08-19T13:46:20.974Z,39.50
2017-08-19T13:48:47.879Z,41.70
2017-08-19T13:51:14.089Z,38.70
2017-08-19T13:53:40.258Z,37.90
2017-08-19T13:56:07.059Z,39.10
2017-08-19T13:58:33.304Z,37.30
2017-08-19T14:01:00.390Z,38.20
2017-08-19T14:03:27.332Z,36.60
2017-08-19T14:05:54.279Z,36.20
2017-08-19T14:08:20.474Z,36.10
2017-08-19T14:10:46.683Z,36.80
2017-08-19T14:13:12.849Z,37.50
2017-08-19T14:15:39.055Z,37.30
2017-08-19T14:18:05.278Z,37.30
2017-08-19T14:20:32.146Z,38.00
2017-08-19T14:22:58.292Z,38.80
2017-08-19T14:35:09.606Z,39.60
2017-08-19T14:37:35.772Z,40.30
2017-08-19T14:40:02.036Z,41.90
2017-08-19T14:42:28.246Z,41.40
2017-08-19T14:44:54.418Z,43.10
2017-08-19T14:47:20.604Z,41.50
2017-08-19T14:49:47.510Z,42.40
2017-08-19T14:52:13.712Z,42.30
2017-08-19T14:54:39.900Z,43.10
2017-08-19T14:57:06.852Z,43.50
2017-08-19T14:59:33.774Z,43.00
2017-08-19T15:01:59.954Z,43.00
2017-08-19T15:04:26.137Z,42.90
2017-08-19T15:06:54.137Z,43.60
2017-08-19T15:09:20.349Z,42.80
2017-08-19T15:11:48.155Z,44.10
2017-08-19T15:14:14.376Z,44.10
2017-08-19T15:16:40.582Z,44.30
2017-08-19T15:19:06.752Z,44.60
2017-08-19T15:21:32.966Z,42.90
2017-08-19T15:23:59.141Z,43.00
2017-08-19T15:26:25.314Z,43.00
2017-08-19T15:38:41.581Z,43.60
2017-08-19T15:41:07.744Z,44.70
2017-08-19T15:43:33.921Z,44.40
2017-08-19T15:46:00.114Z,43.80
2017-08-19T15:48:26.386Z,44.30
2017-08-19T15:50:52.551Z,43.50
2017-08-19T15:53:18.707Z,44.30
2017-08-19T15:55:45.638Z,45.80
2017-08-19T15:58:12.650Z,45.20
2017-08-19T16:00:38.872Z,44.20
2017-08-19T16:03:05.089Z,45.20
2017-08-19T16:05:31.363Z,45.20
2017-08-19T16:07:58.458Z,43.50
2017-08-19T16:10:25.482Z,44.80
2017-08-19T16:12:52.072Z,46.30
2017-08-19T16:15:19.152Z,44.40
2017-08-19T16:17:45.343Z,44.90
2017-08-19T16:20:11.539Z,45.90
2017-08-19T16:22:39.607Z,46.70
2017-08-19T16:25:06.511Z,46.50
2017-08-19T16:27:32.722Z,45.50
2017-08-19T16:29:58.929Z,45.90
2017-08-19T16:32:25.499Z,48.00
2017-08-19T16:34:52.813Z,48.60
2017-08-19T16:37:19.014Z,46.10
2017-08-19T16:39:45.173Z,47.20
2017-08-19T16:42:11.731Z,46.60
2017-08-19T16:44:38.050Z,46.60
2017-08-19T16:47:04.251Z,47.10
2017-08-19T16:49:31.979Z,47.40
2017-08-19T16:52:00.109Z,46.30
2017-08-19T16:54:26.337Z,46.80
2017-08-19T16:56:52.602Z,47.10
2017-08-19T16:59:18.831Z,47.20
2017-08-19T17:01:45.966Z,47.00
2017-08-19T17:04:12.153Z,47.80
2017-08-19T17:06:39.094Z,47.70
2017-08-19T17:09:05.263Z,47.70
2017-08-19T17:11:31.551Z,47.70
2017-08-19T17:13:57.707Z,48.30
2017-08-19T17:16:23.869Z,48.20
2017-08-19T17:18:50.029Z,49.40
2017-08-19T17:21:17.110Z,48.80
2017-08-19T17:23:43.714Z,49.20
2017-08-19T17:26:11.224Z,48.50
2017-08-19T17:28:38.758Z,48.50
2017-08-19T17:31:04.954Z,48.40
2017-08-19T17:36:20.811Z,49.50
2017-08-19T17:38:50.690Z,49.20
2017-08-19T17:41:17.654Z,51.40
2017-08-19T17:43:44.631Z,49.00
2017-08-19T17:46:11.863Z,49.00
2017-08-19T17:48:38.057Z,49.50
2017-08-19T17:51:04.222Z,48.70
2017-08-19T17:53:30.449Z,49.10
2017-08-19T17:55:56.652Z,49.10
2017-08-19T17:58:23.593Z,49.90
2017-08-19T18:00:49.777Z,49.90
2017-08-19T18:03:15.985Z,50.60
2017-08-19T18:05:43.843Z,50.70
2017-08-19T18:08:10.100Z,50.90
2017-08-19T18:10:36.271Z,51.10
2017-08-19T18:13:02.518Z,51.90
2017-08-19T18:15:28.794Z,54.60
2017-08-19T18:17:55.268Z,55.00
2017-08-19T18:20:23.085Z,56.60
2017-08-19T18:22:49.306Z,58.10
2017-08-19T18:25:15.597Z,58.80
2017-08-19T18:27:42.526Z,58.90
2017-08-19T18:30:08.758Z,59.00
2017-08-19T18:32:35.031Z,60.30
2017-08-19T18:35:01.190Z,60.50
2017-08-19T18:37:27.360Z,60.50
2017-08-19T18:39:55.151Z,62.10
2017-08-19T18:42:21.379Z,61.90
2017-08-19T18:44:47.563Z,61.80
2017-08-19T18:47:13.742Z,62.40
2017-08-19T18:49:39.986Z,62.40
2017-08-19T18:52:06.466Z,63.30
2017-08-19T18:54:32.676Z,64.30
2017-08-19T18:56:58.897Z,65.20
2017-08-19T18:59:25.120Z,65.00
2017-08-19T19:01:51.972Z,65.10
2017-08-19T19:04:18.134Z,64.90
2017-08-19T19:06:45.046Z,65.80
2017-08-19T19:09:11.260Z,65.40
2017-08-19T19:11:38.095Z,65.70
2017-08-19T19:14:04.312Z,66.20
2017-08-19T19:16:30.493Z,67.40
2017-08-19T19:18:56.696Z,68.00
2017-08-19T19:21:22.876Z,68.00
2017-08-19T19:23:49.783Z,68.10
2017-08-19T19:26:15.985Z,68.10
2017-08-19T19:28:42.168Z,67.10
2017-08-19T19:31:09.634Z,68.00
2017-08-19T19:33:36.561Z,67.40
2017-08-19T19:36:03.513Z,66.90
2017-08-19T19:38:30.443Z,66.80
2017-08-19T19:40:56.623Z,67.30
2017-08-19T19:43:22.852Z,67.40
2017-08-19T19:45:49.051Z,67.50
2017-08-19T19:48:15.990Z,66.70
2017-08-19T19:50:42.956Z,66.40
2017-08-19T19:53:09.207Z,66.40
2017-08-19T19:55:35.360Z,66.20
2017-08-19T19:58:01.987Z,66.80
2017-08-19T20:00:28.519Z,65.90
2017-08-19T20:02:54.706Z,66.50
2017-08-19T20:05:21.656Z,67.30
2017-08-19T20:07:47.878Z,67.30
2017-08-19T20:10:14.804Z,68.30
2017-08-19T20:12:41.050Z,68.30
2017-08-19T20:15:07.334Z,68.70
2017-08-19T20:17:33.555Z,69.10
2017-08-19T20:19:59.772Z,69.10
2017-08-19T20:22:25.974Z,69.00
2017-08-19T20:24:52.150Z,67.00
2017-08-19T20:27:18.435Z,68.80
2017-08-19T20:29:45.355Z,70.00
2017-08-19T20:32:12.365Z,70.20
2017-08-19T20:34:39.288Z,69.30
2017-08-19T20:37:05.467Z,69.80
2017-08-19T20:39:31.666Z,69.70
2017-08-19T20:41:57.833Z,70.10
2017-08-19T20:44:24.144Z,70.00
2017-08-19T20:46:50.294Z,70.40
2017-08-19T20:49:16.510Z,69.60
2017-08-19T20:51:43.488Z,69.90
2017-08-19T20:54:10.447Z,69.30
2017-08-19T20:56:36.648Z,68.30
2017-08-19T20:59:03.618Z,68.60
2017-08-19T21:01:29.836Z,68.50
2017-08-19T21:03:56.753Z,68.90
2017-08-19T21:06:22.949Z,68.80
2017-08-19T21:08:49.153Z,67.80
2017-08-19T21:11:15.341Z,67.50
2017-08-19T21:13:41.549Z,68.30
2017-08-19T21:16:07.855Z,67.40
2017-08-19T21:18:34.089Z,67.60
2017-08-19T21:21:01.703Z,66.80
2017-08-19T21:23:28.674Z,67.90
2017-08-19T21:25:54.873Z,67.90
2017-08-19T21:28:21.843Z,66.50
2017-08-19T21:30:48.645Z,66.50
2017-08-19T21:33:14.875Z,67.10
2017-08-19T21:35:41.082Z,67.00
2017-08-19T21:38:07.262Z,66.70
2017-08-19T21:40:35.104Z,67.00
2017-08-19T21:43:03.537Z,67.00
2017-08-19T21:45:29.745Z,67.20
2017-08-19T21:47:56.702Z,67.60
2017-08-19T21:50:23.375Z,67.60
2017-08-19T21:52:49.603Z,67.60
2017-08-19T21:55:15.830Z,66.90
2017-08-19T21:57:42.018Z,67.50
2017-08-19T22:00:08.981Z,68.70
2017-08-19T22:02:35.212Z,68.70
2017-08-19T22:05:01.401Z,68.60
2017-08-19T22:07:27.587Z,69.00
2017-08-19T22:09:58.518Z,68.60
2017-08-19T22:12:26.557Z,68.10
2017-08-19T22:14:52.907Z,68.70
2017-08-19T22:17:19.110Z,68.80
2017-08-19T22:19:46.051Z,70.00
2017-08-19T22:22:12.989Z,70.30
2017-08-19T22:24:40.078Z,70.20
2017-08-19T22:27:06.407Z,69.80
2017-08-19T22:29:32.695Z,70.20
2017-08-19T22:31:58.922Z,69.40
2017-08-19T22:34:25.134Z,69.80
2017-08-19T22:36:51.400Z,70.10
2017-08-19T22:39:18.371Z,71.80
2017-08-19T22:41:44.554Z,70.30
2017-08-19T22:44:10.774Z,71.00
2017-08-19T22:46:36.972Z,69.60
2017-08-19T22:49:04.320Z,72.00
2017-08-19T22:51:30.526Z,72.00
2017-08-19T22:54:00.720Z,71.10
2017-08-19T22:56:26.930Z,71.40
2017-08-19T22:58:53.164Z,70.80
2017-08-19T23:01:19.382Z,70.30
2017-08-19T23:03:45.562Z,70.60
2017-08-19T23:06:12.475Z,70.90
2017-08-19T23:08:38.906Z,70.20
2017-08-19T23:11:05.069Z,70.30
2017-08-19T23:13:31.259Z,71.10
2017-08-19T23:15:57.446Z,71.70
2017-08-19T23:18:26.965Z,71.70
2017-08-19T23:20:53.162Z,71.10
2017-08-19T23:23:19.336Z,72.00
2017-08-19T23:25:45.512Z,71.80
2017-08-19T23:28:12.432Z,72.20
2017-08-19T23:30:38.639Z,72.80
2017-08-19T23:33:04.827Z,72.00
2017-08-19T23:35:31.002Z,72.40
2017-08-19T23:37:57.215Z,72.40
2017-08-19T23:40:23.420Z,73.00
2017-08-19T23:42:49.602Z,72.00
2017-08-19T23:45:15.783Z,71.80
2017-08-19T23:47:41.966Z,71.90
2017-08-19T23:50:08.956Z,72.40
2017-08-19T23:52:35.191Z,71.80
2017-08-19T23:55:01.374Z,71.30
2017-08-19T23:57:28.714Z,71.90
2017-08-19T23:59:55.804Z,72.90
